createdAt,value
2018-05-26T00:02:19.455Z,12.53
2018-05-26T00:04:46.905Z,12.70
2018-05-26T00:07:14.370Z,13.67
2018-05-26T00:09:41.826Z,12.07
2018-05-26T00:12:09.339Z,12.67
2018-05-26T00:14:36.830Z,13.00
2018-05-26T00:17:04.290Z,12.63
2018-05-26T00:19:31.799Z,14.57
2018-05-26T00:22:00.062Z,12.97
2018-05-26T00:24:27.545Z,13.10
2018-05-26T00:26:55.019Z,11.30
2018-05-26T00:29:22.485Z,12.73
2018-05-26T00:31:49.952Z,12.43
2018-05-26T00:34:17.432Z,11.67
2018-05-26T00:36:44.935Z,13.00
2018-05-26T00:39:12.329Z,11.63
2018-05-26T00:41:39.787Z,13.40
2018-05-26T00:44:07.230Z,13.00
2018-05-26T00:46:34.702Z,12.93
2018-05-26T00:49:02.181Z,13.33
2018-05-26T00:51:29.650Z,12.70
2018-05-26T00:53:57.115Z,12.27
2018-05-26T00:56:24.577Z,12.13
2018-05-26T00:58:52.818Z,11.53
2018-05-26T01:01:20.317Z,12.73
2018-05-26T01:03:47.802Z,12.90
2018-05-26T01:06:15.258Z,12.70
2018-05-26T01:08:42.717Z,12.47
2018-05-26T01:11:10.202Z,12.03
2018-05-26T01:13:37.678Z,11.93
2018-05-26T01:16:05.402Z,12.10
2018-05-26T01:18:32.885Z,11.47
2018-05-26T01:21:00.388Z,11.43
2018-05-26T01:23:28.611Z,11.43
2018-05-26T01:25:56.077Z,12.83
2018-05-26T01:28:23.533Z,12.47
2018-05-26T01:30:51.005Z,11.90
2018-05-26T01:33:18.451Z,12.60
2018-05-26T01:35:45.912Z,13.40
2018-05-26T01:38:13.366Z,12.40
2018-05-26T01:40:40.862Z,11.90
2018-05-26T01:43:08.311Z,11.57
2018-05-26T01:45:35.802Z,13.03
2018-05-26T01:48:03.268Z,13.33
2018-05-26T01:50:30.718Z,12.40
2018-05-26T01:52:58.195Z,11.87
2018-05-26T01:55:25.650Z,12.07
2018-05-26T01:57:53.117Z,13.53
2018-05-26T02:00:20.575Z,12.80
2018-05-26T02:02:48.034Z,12.33
2018-05-26T02:05:15.486Z,12.13
2018-05-26T02:07:42.934Z,12.60
2018-05-26T02:10:10.405Z,12.67
2018-05-26T02:12:37.865Z,13.90
2018-05-26T02:15:05.321Z,12.23
2018-05-26T02:17:32.775Z,13.30
2018-05-26T02:20:00.237Z,14.07
2018-05-26T02:22:27.698Z,13.80
2018-05-26T02:24:55.166Z,12.37
2018-05-26T02:27:22.628Z,11.63
2018-05-26T02:29:50.084Z,13.47
2018-05-26T02:32:17.547Z,11.73
2018-05-26T02:34:45.009Z,11.80
2018-05-26T02:37:12.473Z,14.10
2018-05-26T02:39:39.926Z,11.63
2018-05-26T02:42:07.419Z,12.17
2018-05-26T02:44:35.739Z,12.03
2018-05-26T02:47:03.203Z,12.13
2018-05-26T02:49:30.662Z,12.40
2018-05-26T02:51:58.114Z,12.70
2018-05-26T02:54:25.578Z,12.93
2018-05-26T02:56:53.048Z,13.93
2018-05-26T02:59:20.515Z,13.10
2018-05-26T03:01:47.984Z,13.47
2018-05-26T03:04:21.090Z,12.90
2018-05-26T03:06:54.872Z,13.00
2018-05-26T03:09:28.119Z,12.97
2018-05-26T03:12:01.255Z,12.90
2018-05-26T03:14:34.434Z,13.87
2018-05-26T03:17:01.902Z,12.63
2018-05-26T03:19:29.371Z,12.40
2018-05-26T03:21:56.838Z,13.43
2018-05-26T03:24:24.320Z,11.77
2018-05-26T03:26:52.550Z,12.40
2018-05-26T03:29:20.009Z,13.00
2018-05-26T03:31:47.466Z,12.30
2018-05-26T03:34:14.921Z,12.63
2018-05-26T03:36:42.400Z,11.87
2018-05-26T03:39:09.855Z,11.80
2018-05-26T03:41:37.319Z,12.77
2018-05-26T03:44:05.550Z,12.03
2018-05-26T03:46:33.002Z,13.40
2018-05-26T03:49:00.480Z,12.67
2018-05-26T03:51:27.942Z,12.87
2018-05-26T03:53:55.417Z,12.13
2018-05-26T03:56:34.693Z,12.90
2018-05-26T04:02:08.862Z,12.57
2018-05-26T04:04:36.321Z,12.47
2018-05-26T04:07:03.786Z,13.60
2018-05-26T04:09:31.263Z,12.67
2018-05-26T04:11:58.718Z,13.10
2018-05-26T04:14:26.179Z,13.67
2018-05-26T04:16:53.631Z,12.87
2018-05-26T04:19:21.086Z,12.23
2018-05-26T04:21:48.561Z,13.03
2018-05-26T04:24:16.014Z,12.87
2018-05-26T04:26:43.458Z,11.67
2018-05-26T04:29:10.917Z,12.27
2018-05-26T04:31:38.378Z,11.00
2018-05-26T04:34:05.845Z,11.90
2018-05-26T04:36:33.299Z,13.03
2018-05-26T04:39:00.769Z,12.90
2018-05-26T04:41:28.216Z,12.50
2018-05-26T04:43:55.675Z,13.07
2018-05-26T04:46:23.145Z,12.90
2018-05-26T04:48:50.614Z,13.77
2018-05-26T04:51:18.851Z,12.00
2018-05-26T04:53:46.324Z,13.27
2018-05-26T04:56:13.803Z,14.30
2018-05-26T04:58:42.029Z,13.57
2018-05-26T05:01:09.483Z,14.10
2018-05-26T05:03:36.962Z,13.57
2018-05-26T05:06:04.422Z,12.40
2018-05-26T05:08:31.885Z,12.80
2018-05-26T05:10:59.329Z,13.00
2018-05-26T05:13:26.809Z,11.97
2018-05-26T05:15:54.264Z,12.40
2018-05-26T05:18:21.709Z,12.30
2018-05-26T05:20:49.170Z,11.90
2018-05-26T05:23:16.618Z,10.73
2018-05-26T05:25:44.077Z,12.23
2018-05-26T05:28:11.518Z,12.63
2018-05-26T05:30:38.978Z,12.10
2018-05-26T05:33:06.429Z,10.90
2018-05-26T05:35:33.877Z,11.50
2018-05-26T05:38:01.352Z,10.70
2018-05-26T05:40:28.794Z,10.30
2018-05-26T05:42:56.262Z,9.40
2018-05-26T05:45:24.259Z,9.27
2018-05-26T05:47:51.790Z,9.30
2018-05-26T05:50:19.249Z,8.77
2018-05-26T05:52:46.699Z,9.50
2018-05-26T05:55:14.914Z,9.20
2018-05-26T05:57:42.351Z,8.90
2018-05-26T06:00:09.934Z,10.20
2018-05-26T06:02:37.418Z,9.80
2018-05-26T06:05:04.886Z,8.97
2018-05-26T06:07:32.904Z,8.27
2018-05-26T06:10:01.386Z,9.00
2018-05-26T06:12:29.327Z,10.13
2018-05-26T06:14:57.991Z,8.50
2018-05-26T06:17:25.554Z,9.33
2018-05-26T06:19:53.006Z,9.30
2018-05-26T06:22:22.963Z,8.70
2018-05-26T06:24:50.543Z,8.70
2018-05-26T06:27:18.383Z,8.90
2018-05-26T06:29:51.595Z,8.03
2018-05-26T06:32:19.433Z,9.33
2018-05-26T06:34:47.378Z,9.23
2018-05-26T06:37:38.388Z,8.80
2018-05-26T06:40:06.982Z,8.50
2018-05-26T06:42:35.037Z,9.03
2018-05-26T06:45:05.124Z,8.37
2018-05-26T06:47:33.842Z,7.90
2018-05-26T06:50:02.517Z,8.50
2018-05-26T06:52:30.991Z,8.83
2018-05-26T06:54:58.819Z,7.60
2018-05-26T06:57:26.369Z,7.40
2018-05-26T06:59:54.280Z,9.73
2018-05-26T07:02:21.839Z,8.30
2018-05-26T07:04:51.564Z,9.30
2018-05-26T07:07:24.085Z,7.03
2018-05-26T07:09:51.884Z,7.30
2018-05-26T07:12:19.581Z,7.00
2018-05-26T07:14:47.214Z,7.63
2018-05-26T07:17:14.971Z,7.90
2018-05-26T07:19:42.992Z,7.57
2018-05-26T07:22:12.241Z,8.27
2018-05-26T07:24:41.312Z,7.47
2018-05-26T07:27:08.937Z,8.50
2018-05-26T07:29:39.738Z,6.90
2018-05-26T07:32:08.214Z,6.77
2018-05-26T07:34:35.889Z,6.77
2018-05-26T07:37:03.765Z,7.47
2018-05-26T07:39:31.579Z,7.93
2018-05-26T07:42:00.581Z,7.30
2018-05-26T07:44:29.217Z,7.77
2018-05-26T07:46:56.765Z,7.17
2018-05-26T07:49:24.393Z,6.63
2018-05-26T07:51:51.906Z,7.40
2018-05-26T07:54:19.566Z,7.00
2018-05-26T07:56:47.079Z,5.93
2018-05-26T07:59:14.719Z,6.10
2018-05-26T08:01:42.349Z,6.27
2018-05-26T08:04:10.533Z,6.93
2018-05-26T08:06:38.217Z,7.50
2018-05-26T08:09:05.894Z,6.60
2018-05-26T08:11:33.528Z,6.50
2018-05-26T08:14:01.218Z,6.17
2018-05-26T08:16:28.983Z,5.50
2018-05-26T08:18:56.608Z,6.40
2018-05-26T08:21:24.211Z,6.27
2018-05-26T08:23:51.878Z,6.77
2018-05-26T08:26:19.635Z,6.67
2018-05-26T08:28:47.267Z,6.20
2018-05-26T08:31:14.937Z,6.10
2018-05-26T08:33:42.553Z,5.03
2018-05-26T08:36:10.423Z,5.87
2018-05-26T08:38:38.059Z,5.97
2018-05-26T08:41:05.780Z,5.07
2018-05-26T08:43:38.475Z,5.10
2018-05-26T08:46:07.161Z,4.93
2018-05-26T08:48:36.037Z,4.67
2018-05-26T08:51:03.694Z,5.53
2018-05-26T08:53:31.346Z,6.20
2018-05-26T08:55:59.820Z,5.80
2018-05-26T08:58:29.036Z,5.47
2018-05-26T09:00:56.569Z,5.03
2018-05-26T09:03:25.041Z,5.00
2018-05-26T09:05:52.735Z,5.13
2018-05-26T09:08:21.017Z,4.93
2018-05-26T09:10:49.115Z,4.77
2018-05-26T09:13:17.672Z,4.23
2018-05-26T09:15:45.297Z,4.90
2018-05-26T09:18:12.797Z,4.80
2018-05-26T09:20:40.382Z,5.07
2018-05-26T09:23:12.321Z,4.20
2018-05-26T09:25:40.066Z,4.90
2018-05-26T09:28:25.264Z,3.90
2018-05-26T09:34:12.389Z,5.03
2018-05-26T09:36:48.702Z,4.60
2018-05-26T09:39:16.621Z,4.23
2018-05-26T09:41:49.040Z,4.23
2018-05-26T09:44:19.033Z,3.83
2018-05-26T09:46:48.856Z,4.07
2018-05-26T09:49:20.480Z,3.80
2018-05-26T09:51:48.492Z,4.20
2018-05-26T09:54:16.152Z,4.27
2018-05-26T09:56:43.610Z,4.50
2018-05-26T09:59:11.197Z,3.63
2018-05-26T10:01:38.641Z,3.60
2018-05-26T10:04:06.178Z,3.57
2018-05-26T10:06:34.442Z,4.50
2018-05-26T10:09:01.991Z,3.80
2018-05-26T10:11:29.470Z,3.60
2018-05-26T10:13:57.761Z,3.90
2018-05-26T10:16:25.236Z,3.83
2018-05-26T10:18:53.497Z,4.33
2018-05-26T10:21:20.938Z,4.43
2018-05-26T10:23:48.410Z,4.13
2018-05-26T10:26:15.967Z,4.17
2018-05-26T10:28:43.417Z,3.70
2018-05-26T10:31:11.715Z,3.90
2018-05-26T10:33:39.341Z,3.23
2018-05-26T10:36:06.844Z,4.10
2018-05-26T10:38:34.314Z,3.90
2018-05-26T10:41:01.862Z,11.40
2018-05-26T10:43:29.360Z,5.40
2018-05-26T10:46:08.621Z,8.70
2018-05-26T10:48:36.889Z,6.67
2018-05-26T10:51:04.471Z,5.20
2018-05-26T10:53:32.008Z,4.07
2018-05-26T10:55:59.734Z,4.30
2018-05-26T10:58:27.966Z,4.43
2018-05-26T11:00:56.222Z,7.30
2018-05-26T11:03:23.717Z,4.67
2018-05-26T11:05:51.177Z,4.00
2018-05-26T11:08:18.695Z,3.53
2018-05-26T11:14:02.115Z,3.70
2018-05-26T11:16:29.626Z,3.80
2018-05-26T11:18:57.117Z,4.10
2018-05-26T11:21:25.382Z,3.37
2018-05-26T11:23:53.047Z,4.20
2018-05-26T11:26:20.540Z,3.87
2018-05-26T11:28:47.991Z,3.90
2018-05-26T11:31:15.752Z,4.30
2018-05-26T11:33:43.294Z,3.97
2018-05-26T11:36:10.774Z,4.00
2018-05-26T11:38:38.246Z,4.40
2018-05-26T11:41:05.803Z,4.27
2018-05-26T11:43:33.333Z,4.57
2018-05-26T11:46:00.799Z,3.93
2018-05-26T11:48:28.330Z,3.70
2018-05-26T11:51:11.389Z,3.20
2018-05-26T11:53:38.890Z,3.83
2018-05-26T11:56:06.381Z,3.37
2018-05-26T11:58:33.844Z,3.87
2018-05-26T12:01:01.330Z,3.43
2018-05-26T12:03:28.803Z,4.00
2018-05-26T12:05:56.306Z,3.43
2018-05-26T12:08:23.954Z,4.00
2018-05-26T12:10:52.323Z,3.23
2018-05-26T12:13:19.878Z,3.87
2018-05-26T12:15:47.388Z,3.20
2018-05-26T12:18:15.669Z,4.07
2018-05-26T12:20:43.324Z,3.20
2018-05-26T12:23:10.820Z,3.60
2018-05-26T12:25:38.360Z,3.30
2018-05-26T12:28:05.920Z,3.53
2018-05-26T12:30:33.519Z,2.97
2018-05-26T12:33:00.999Z,3.67
2018-05-26T12:35:28.494Z,2.90
2018-05-26T12:38:00.694Z,3.40
2018-05-26T12:40:30.878Z,3.47
2018-05-26T12:42:58.929Z,3.00
2018-05-26T12:45:27.516Z,3.93
2018-05-26T12:51:13.710Z,3.30
2018-05-26T12:53:43.046Z,2.90
2018-05-26T12:56:24.563Z,3.30
2018-05-26T12:59:01.635Z,2.90
2018-05-26T13:01:29.730Z,3.33
2018-05-26T13:07:02.228Z,3.23
2018-05-26T13:09:32.276Z,3.23
2018-05-26T13:12:09.925Z,3.10
2018-05-26T13:14:43.823Z,2.57
2018-05-26T13:17:12.902Z,2.67
2018-05-26T13:19:58.772Z,3.30
2018-05-26T13:25:06.754Z,2.30
2018-05-26T13:27:34.316Z,2.73
2018-05-26T13:30:03.657Z,2.50
2018-05-26T13:32:32.136Z,2.80
2018-05-26T13:34:59.600Z,3.10
2018-05-26T13:37:27.065Z,24.20
2018-05-26T13:39:54.562Z,24.50
2018-05-26T13:42:22.801Z,3.97
2018-05-26T13:44:50.253Z,3.17
2018-05-26T13:47:17.747Z,3.00
2018-05-26T13:49:45.235Z,3.10
2018-05-26T13:52:12.783Z,2.87
2018-05-26T13:54:40.210Z,2.47
2018-05-26T13:57:07.670Z,2.63
2018-05-26T13:59:36.120Z,3.47
2018-05-26T14:02:03.674Z,2.60
2018-05-26T14:04:31.139Z,2.90
2018-05-26T14:06:58.613Z,3.10
2018-05-26T14:09:26.106Z,2.73
2018-05-26T14:11:53.608Z,2.80
2018-05-26T14:14:21.103Z,2.07
2018-05-26T14:16:48.844Z,2.50
2018-05-26T14:19:16.364Z,2.53
2018-05-26T14:21:44.597Z,2.43
2018-05-26T14:24:12.081Z,2.80
2018-05-26T14:26:39.763Z,3.60
2018-05-26T14:29:07.214Z,2.77
2018-05-26T14:31:34.665Z,2.60
2018-05-26T14:34:02.917Z,2.10
2018-05-26T14:36:30.433Z,2.30
2018-05-26T14:38:57.906Z,2.27
2018-05-26T14:41:25.403Z,2.37
2018-05-26T14:43:52.907Z,2.23
2018-05-26T14:46:21.196Z,2.53
2018-05-26T14:48:48.736Z,2.60
2018-05-26T14:51:16.194Z,3.07
2018-05-26T14:53:43.665Z,2.43
2018-05-26T14:56:11.157Z,3.00
2018-05-26T14:58:38.640Z,3.13
2018-05-26T15:01:06.291Z,2.87
2018-05-26T15:03:33.768Z,2.87
2018-05-26T15:06:02.253Z,3.00
2018-05-26T15:08:30.842Z,2.67
2018-05-26T15:10:59.204Z,3.00
2018-05-26T15:13:31.809Z,7.40
2018-05-26T15:15:59.375Z,3.50
2018-05-26T15:18:27.824Z,2.83
2018-05-26T15:20:55.301Z,2.40
2018-05-26T15:23:22.786Z,2.60
2018-05-26T15:25:50.246Z,2.60
2018-05-26T15:28:20.911Z,15.70
2018-05-26T15:30:48.411Z,11.57
2018-05-26T15:33:15.857Z,2.90
2018-05-26T15:35:44.236Z,2.97
2018-05-26T15:38:12.474Z,3.50
2018-05-26T15:40:40.045Z,5.77
2018-05-26T15:43:07.510Z,2.60
2018-05-26T15:45:35.501Z,2.47
2018-05-26T15:48:02.992Z,2.63
2018-05-26T15:50:30.478Z,2.73
2018-05-26T15:52:57.946Z,2.37
2018-05-26T15:55:25.518Z,3.30
2018-05-26T15:57:53.790Z,2.57
2018-05-26T16:00:21.263Z,3.13
2018-05-26T16:02:48.717Z,2.80
2018-05-26T16:05:16.962Z,2.80
2018-05-26T16:07:44.423Z,2.37
2018-05-26T16:10:11.910Z,2.50
2018-05-26T16:12:40.159Z,2.80
2018-05-26T16:15:07.645Z,2.50
2018-05-26T16:17:35.885Z,2.37
2018-05-26T16:20:03.332Z,2.60
2018-05-26T16:22:30.802Z,1.90
2018-05-26T16:24:58.258Z,2.63
2018-05-26T16:27:25.782Z,2.40
2018-05-26T16:29:53.233Z,2.37
2018-05-26T16:32:20.711Z,2.40
2018-05-26T16:34:53.785Z,2.30
2018-05-26T16:37:21.277Z,2.43
2018-05-26T16:39:48.722Z,2.40
2018-05-26T16:42:16.286Z,2.40
2018-05-26T16:44:43.841Z,2.27
2018-05-26T16:47:11.332Z,2.50
2018-05-26T16:49:38.793Z,2.60
2018-05-26T16:52:06.257Z,2.40
2018-05-26T16:54:33.711Z,3.40
2018-05-26T16:57:01.555Z,2.60
2018-05-26T16:59:29.486Z,2.60
2018-05-26T17:01:56.961Z,2.90
2018-05-26T17:04:24.421Z,3.57
2018-05-26T17:06:53.888Z,4.00
2018-05-26T17:09:22.155Z,3.10
2018-05-26T17:11:49.613Z,3.60
2018-05-26T17:14:17.844Z,3.47
2018-05-26T17:16:45.282Z,3.43
2018-05-26T17:19:12.763Z,3.60
2018-05-26T17:21:40.239Z,3.30
2018-05-26T17:24:07.679Z,3.63
2018-05-26T17:26:35.169Z,3.60
2018-05-26T17:29:02.621Z,3.30
2018-05-26T17:31:30.089Z,3.63
2018-05-26T17:33:57.551Z,3.70
2018-05-26T17:36:25.011Z,3.83
2018-05-26T17:38:53.221Z,4.13
2018-05-26T17:41:20.697Z,3.40
2018-05-26T17:43:48.163Z,3.67
2018-05-26T17:46:15.651Z,3.10
2018-05-26T17:48:43.114Z,3.97
2018-05-26T17:51:10.597Z,8.57
2018-05-26T17:53:38.398Z,4.80
2018-05-26T17:56:06.598Z,3.77
2018-05-26T17:58:34.713Z,3.87
2018-05-26T18:01:02.401Z,3.37
2018-05-26T18:03:29.845Z,3.47
2018-05-26T18:05:57.295Z,4.13
2018-05-26T18:08:24.836Z,4.47
2018-05-26T18:10:52.244Z,4.43
2018-05-26T18:13:19.709Z,3.87
2018-05-26T18:15:47.167Z,4.27
2018-05-26T18:18:14.666Z,3.80
2018-05-26T18:20:42.129Z,4.00
2018-05-26T18:23:10.377Z,3.73
2018-05-26T18:25:37.851Z,3.50
2018-05-26T18:28:05.612Z,3.67
2018-05-26T18:30:37.253Z,9.80
2018-05-26T18:33:04.761Z,5.10
2018-05-26T18:35:32.226Z,3.63
2018-05-26T18:43:53.696Z,5.00
2018-05-26T18:52:33.624Z,4.33
2018-05-26T18:55:01.455Z,4.93
2018-05-26T18:57:29.714Z,4.20
2018-05-26T18:59:57.261Z,4.80
2018-05-26T19:02:24.733Z,4.87
2018-05-26T19:04:52.214Z,4.90
2018-05-26T19:07:19.960Z,5.23
2018-05-26T19:09:47.652Z,5.00
2018-05-26T19:12:15.768Z,5.20
2018-05-26T19:23:56.449Z,5.87
2018-05-26T19:32:10.614Z,6.53
2018-05-26T19:34:38.473Z,5.57
2018-05-26T19:37:08.856Z,5.90
2018-05-26T19:39:37.563Z,6.60
2018-05-26T19:42:05.131Z,6.37
2018-05-26T19:44:32.721Z,6.10
2018-05-26T19:47:00.281Z,8.10
2018-05-26T19:49:27.990Z,7.87
2018-05-26T19:51:55.596Z,8.30
2018-05-26T19:54:23.073Z,7.77
2018-05-26T19:56:50.745Z,7.03
2018-05-26T19:59:18.329Z,6.77
2018-05-26T20:01:45.991Z,6.87
2018-05-26T20:04:13.619Z,7.37
2018-05-26T20:06:41.201Z,6.60
2018-05-26T20:09:08.787Z,13.30
2018-05-26T20:11:36.251Z,7.60
2018-05-26T20:14:03.714Z,7.80
2018-05-26T20:16:31.176Z,7.47
2018-05-26T20:18:59.665Z,8.50
2018-05-26T20:21:27.180Z,6.97
2018-05-26T20:23:54.644Z,7.73
2018-05-26T20:26:22.137Z,6.73
2018-05-26T20:28:49.656Z,8.40
2018-05-26T20:31:17.188Z,8.70
2018-05-26T20:33:44.614Z,12.20
2018-05-26T20:36:12.224Z,10.40
2018-05-26T20:38:40.130Z,9.93
2018-05-26T20:41:07.578Z,9.40
2018-05-26T20:43:35.090Z,8.50
2018-05-26T20:46:02.536Z,8.27
2018-05-26T20:48:30.019Z,7.70
2018-05-26T20:50:57.528Z,6.83
2018-05-26T20:53:25.161Z,7.50
2018-05-26T20:55:55.380Z,7.90
2018-05-26T20:58:22.880Z,7.87
2018-05-26T21:00:52.582Z,6.67
2018-05-26T21:03:20.102Z,7.43
2018-05-26T21:05:47.553Z,6.87
2018-05-26T21:08:15.760Z,6.63
2018-05-26T21:10:43.227Z,6.70
2018-05-26T21:13:10.706Z,7.80
2018-05-26T21:15:38.276Z,6.50
2018-05-26T21:18:05.735Z,7.40
2018-05-26T21:20:33.191Z,7.63
2018-05-26T21:23:00.667Z,7.57
2018-05-26T21:25:28.169Z,7.73
2018-05-26T21:27:55.694Z,8.40
2018-05-26T21:30:23.141Z,8.50
2018-05-26T21:32:50.605Z,7.30
2018-05-26T21:35:19.069Z,7.43
2018-05-26T21:37:46.522Z,8.00
2018-05-26T21:40:14.970Z,7.47
2018-05-26T21:42:42.426Z,7.53
2018-05-26T21:45:09.905Z,7.80
2018-05-26T21:47:37.397Z,7.20
2018-05-26T21:50:04.870Z,7.70
2018-05-26T21:52:32.346Z,7.80
2018-05-26T21:54:59.790Z,7.87
2018-05-26T21:57:27.261Z,7.90
2018-05-26T21:59:54.729Z,8.10
2018-05-26T22:02:22.210Z,7.50
2018-05-26T22:04:49.681Z,7.87
2018-05-26T22:07:17.147Z,7.50
2018-05-26T22:09:45.382Z,8.50
2018-05-26T22:12:12.849Z,9.47
2018-05-26T22:14:40.323Z,8.60
2018-05-26T22:17:07.800Z,7.47
2018-05-26T22:19:35.259Z,9.13
2018-05-26T22:22:03.479Z,8.13
2018-05-26T22:24:30.942Z,8.63
2018-05-26T22:26:58.605Z,7.63
2018-05-26T22:29:26.075Z,7.70
2018-05-26T22:31:53.559Z,8.37
2018-05-26T22:34:21.015Z,7.73
2018-05-26T22:36:48.478Z,7.90
2018-05-26T22:39:15.934Z,8.43
2018-05-26T22:41:43.390Z,6.90
2018-05-26T22:44:10.856Z,6.97
2018-05-26T22:46:38.322Z,7.47
2018-05-26T22:49:06.556Z,7.67
2018-05-26T22:51:34.035Z,7.23
2018-05-26T22:54:01.501Z,7.50
2018-05-26T22:56:28.957Z,7.20
2018-05-26T22:58:56.427Z,6.90
2018-05-26T23:01:23.898Z,7.50
2018-05-26T23:03:51.373Z,7.30
2018-05-26T23:06:18.859Z,7.87
2018-05-26T23:08:46.352Z,7.30
2018-05-26T23:11:13.826Z,7.87
2018-05-26T23:13:41.290Z,7.57
2018-05-26T23:16:08.742Z,7.17
2018-05-26T23:18:36.978Z,7.80
2018-05-26T23:21:04.444Z,7.97
2018-05-26T23:23:31.917Z,22.70
2018-05-26T23:26:00.158Z,15.13
2018-05-26T23:28:27.624Z,9.73
2018-05-26T23:30:55.098Z,11.43
2018-05-26T23:33:22.547Z,7.50
2018-05-26T23:35:50.014Z,8.20
2018-05-26T23:38:17.477Z,8.57
2018-05-26T23:40:44.942Z,9.40
2018-05-26T23:43:12.410Z,10.60
2018-05-26T23:45:39.886Z,10.30
2018-05-26T23:48:07.339Z,9.60
2018-05-26T23:50:34.819Z,10.50
2018-05-26T23:53:02.303Z,8.90
2018-05-26T23:55:29.745Z,9.20
2018-05-26T23:57:57.247Z,8.80
